Time,TemperatureF,DewpointF,PressureIn,WindDirection,WindDirectionDegrees,WindSpeedMPH,WindSpeedGustMPH,Humidity,HourlyPrecipIn,Conditions,Clouds,dailyrainin,SoftwareType,DateUTC
2013-01-23 00:02:00,37.0,11.0,-100.00,SSE,147,4.0,6.0,34,0.00,,,-99.99,,2013-01-23 07:02:00,
2013-01-23 00:11:00,37.0,11.0,-100.00,SSE,150,4.0,6.0,34,0.00,,,-99.99,,2013-01-23 07:11:00,
2013-01-23 00:22:00,35.0,12.0,-100.00,South,169,3.0,6.0,39,0.00,,,-99.99,,2013-01-23 07:22:00,
2013-01-23 00:32:00,34.0,12.0,-100.00,SSE,167,2.0,4.0,40,0.00,,,-99.99,,2013-01-23 07:32:00,
2013-01-23 00:42:00,34.0,12.0,-100.00,SSE,165,0.0,0.0,41,0.00,,,-99.99,,2013-01-23 07:42:00,
2013-01-23 00:52:00,34.0,13.0,-100.00,SSW,198,0.0,1.0,40,0.00,,,-99.99,,2013-01-23 07:52:00,
2013-01-23 01:01:00,35.0,10.0,-100.00,WSW,244,1.0,2.0,35,0.00,,,-99.99,,2013-01-23 08:01:00,
2013-01-23 01:11:00,36.0,10.0,-100.00,SSW,195,1.0,2.0,34,0.00,,,-99.99,,2013-01-23 08:11:00,
2013-01-23 01:22:00,35.0,11.0,-100.00,SSE,162,2.0,4.0,36,0.00,,,-99.99,,2013-01-23 08:22:00,
2013-01-23 01:32:00,35.0,12.0,-100.00,SE,140,1.0,4.0,37,0.00,,,-99.99,,2013-01-23 08:32:00,
2013-01-23 01:42:00,34.0,12.0,-100.00,ENE,73,1.0,2.0,39,0.00,,,-99.99,,2013-01-23 08:42:00,
2013-01-23 01:52:00,35.0,11.0,-100.00,NW,311,1.0,1.0,36,0.00,,,-99.99,,2013-01-23 08:52:00,
2013-01-23 02:02:00,37.0,9.0,-100.00,WSW,239,1.0,2.0,31,0.00,,,-99.99,,2013-01-23 09:02:00,
2013-01-23 02:12:00,38.0,9.0,-100.00,SSW,192,1.0,2.0,29,0.00,,,-99.99,,2013-01-23 09:12:00,
2013-01-23 02:22:00,38.0,9.0,-100.00,South,174,2.0,3.0,30,0.00,,,-99.99,,2013-01-23 09:22:00,
2013-01-23 02:32:00,38.0,10.0,-100.00,SSE,160,2.0,4.0,31,0.00,,,-99.99,,2013-01-23 09:32:00,
2013-01-23 02:42:00,37.0,11.0,-100.00,SE,131,1.0,3.0,33,0.00,,,-99.99,,2013-01-23 09:42:00,
2013-01-23 02:52:00,36.0,9.0,-100.00,SSE,151,1.0,2.0,33,0.00,,,-99.99,,2013-01-23 09:52:00,
2013-01-23 03:02:00,36.0,12.0,-100.00,SW,224,1.0,3.0,36,0.00,,,-99.99,,2013-01-23 10:02:00,
2013-01-23 03:11:00,35.0,11.0,-100.00,WNW,291,2.0,5.0,37,0.00,,,-99.99,,2013-01-23 10:11:00,
2013-01-23 03:22:00,32.0,15.0,-100.00,WNW,292,6.0,8.0,47,0.00,,,-99.99,,2013-01-23 10:22:00,
2013-01-23 03:32:00,32.0,14.0,-100.00,NW,309,4.0,5.0,48,0.00,,,-99.99,,2013-01-23 10:32:00,
2013-01-23 03:42:00,32.0,14.0,-100.00,NW,320,3.0,5.0,46,0.00,,,-99.99,,2013-01-23 10:42:00,
2013-01-23 03:52:00,32.0,13.0,-100.00,NW,323,4.0,7.0,45,0.00,,,-99.99,,2013-01-23 10:52:00,
2013-01-23 04:01:00,32.0,12.0,-100.00,NW,325,4.0,7.0,43,0.00,,,-99.99,,2013-01-23 11:01:00,
2013-01-23 04:11:00,32.0,12.0,-100.00,NW,315,6.0,7.0,43,0.00,,,-99.99,,2013-01-23 11:11:00,
2013-01-23 04:22:00,30.0,13.0,-100.00,NW,306,4.0,6.0,48,0.00,,,-99.99,,2013-01-23 11:22:00,
2013-01-23 04:32:00,29.0,13.0,-100.00,NW,309,4.0,6.0,49,0.00,,,-99.99,,2013-01-23 11:32:00,
2013-01-23 04:42:00,31.0,12.0,-100.00,NW,308,6.0,7.0,46,0.00,,,-99.99,,2013-01-23 11:42:00,
2013-01-23 04:52:00,31.0,12.0,-100.00,NW,312,5.0,6.0,45,0.00,,,-99.99,,2013-01-23 11:52:00,
2013-01-23 05:02:00,32.0,11.0,-100.00,NW,323,4.0,7.0,41,0.00,,,-99.99,,2013-01-23 12:02:00,
2013-01-23 05:12:00,31.0,12.0,-100.00,NW,320,4.0,6.0,45,0.00,,,-99.99,,2013-01-23 12:12:00,
2013-01-23 05:22:00,30.0,12.0,-100.00,NW,311,3.0,6.0,47,0.00,,,-99.99,,2013-01-23 12:22:00,
2013-01-23 05:32:00,29.0,12.0,-100.00,NNW,329,0.0,2.0,49,0.00,,,-99.99,,2013-01-23 12:32:00,
2013-01-23 05:42:00,30.0,13.0,-100.00,West,280,2.0,4.0,48,0.00,,,-99.99,,2013-01-23 12:42:00,
2013-01-23 05:52:00,28.0,13.0,-100.00,West,270,2.0,4.0,53,0.00,,,-99.99,,2013-01-23 12:52:00,
2013-01-23 06:02:00,28.0,14.0,-100.00,WSW,239,2.0,5.0,55,0.00,,,-99.99,,2013-01-23 13:02:00,
2013-01-23 06:11:00,26.0,14.0,-100.00,NW,309,2.0,4.0,60,0.00,,,-99.99,,2013-01-23 13:11:00,
2013-01-23 06:32:00,30.0,13.0,-100.00,NNW,342,1.0,3.0,49,0.00,,,-99.99,,2013-01-23 13:32:00,
2013-01-23 06:42:00,30.0,13.0,-100.00,NNW,346,1.0,1.0,48,0.00,,,-99.99,,2013-01-23 13:42:00,
2013-01-23 06:52:00,27.0,16.0,-100.00,East,99,1.0,4.0,61,0.00,,,-99.99,,2013-01-23 13:52:00,
2013-01-23 07:02:00,25.0,16.0,-100.00,SE,128,3.0,6.0,67,0.00,,,-99.99,,2013-01-23 14:02:00,
2013-01-23 07:11:00,25.0,16.0,-100.00,SE,134,3.0,4.0,67,0.00,,,-99.99,,2013-01-23 14:11:00,
2013-01-23 07:23:00,25.0,16.0,-100.00,SSE,162,3.0,4.0,67,0.00,,,-99.99,,2013-01-23 14:23:00,
2013-01-23 07:42:00,26.0,16.0,-100.00,SSE,158,3.0,4.0,67,0.00,,,-99.99,,2013-01-23 14:42:00,
2013-01-23 07:52:00,26.0,16.0,-100.00,South,179,4.0,5.0,66,0.00,,,-99.99,,2013-01-23 14:52:00,
2013-01-23 08:02:00,27.0,17.0,-100.00,SSE,167,4.0,6.0,65,0.00,,,-99.99,,2013-01-23 15:02:00,
2013-01-23 08:12:00,26.0,16.0,-100.00,SSE,155,3.0,5.0,65,0.00,,,-99.99,,2013-01-23 15:12:00,
2013-01-23 08:22:00,25.0,16.0,-100.00,SSE,148,1.0,3.0,68,0.00,,,-99.99,,2013-01-23 15:22:00,
2013-01-23 08:32:00,25.0,16.0,-100.00,ESE,114,3.0,4.0,67,0.00,,,-99.99,,2013-01-23 15:32:00,
2013-01-23 08:42:00,26.0,16.0,-100.00,ESE,109,2.0,3.0,67,-99.99,,,-99.99,,2013-01-23 15:42:00,
2013-01-23 08:52:00,25.0,17.0,-100.00,NE,45,2.0,3.0,71,0.00,,,-99.99,,2013-01-23 15:52:00,
2013-01-23 09:02:00,25.0,16.0,-100.00,NNE,30,1.0,2.0,69,0.00,,,-99.99,,2013-01-23 16:02:00,
2013-01-23 09:11:00,26.0,17.0,-100.00,ENE,76,1.0,2.0,69,0.00,,,-99.99,,2013-01-23 16:11:00,
2013-01-23 09:32:00,26.0,18.0,-100.00,ESE,106,1.0,2.0,71,0.00,,,-99.99,,2013-01-23 16:32:00,
2013-01-23 09:42:00,26.0,17.0,-100.00,ESE,112,2.0,3.0,67,0.00,,,-99.99,,2013-01-23 16:42:00,
2013-01-23 09:52:00,26.0,18.0,-100.00,East,97,2.0,4.0,69,0.00,,,-99.99,,2013-01-23 16:52:00,
2013-01-23 10:02:00,27.0,18.0,-100.00,ESE,123,4.0,6.0,68,0.00,,,-99.99,,2013-01-23 17:02:00,
2013-01-23 10:22:00,26.0,17.0,-100.00,ESE,123,7.0,9.0,68,0.00,,,-99.99,,2013-01-23 17:22:00,
2013-01-23 10:33:00,26.0,19.0,-100.00,SE,137,9.0,11.0,76,0.00,,,-99.99,,2013-01-23 17:33:00,
2013-01-23 10:42:00,25.0,19.0,-100.00,SE,145,10.0,12.0,77,0.00,,,-99.99,,2013-01-23 17:42:00,
2013-01-23 10:52:00,25.0,18.0,-100.00,SSE,150,11.0,12.0,76,0.00,,,-99.99,,2013-01-23 17:52:00,
2013-01-23 11:02:00,26.0,19.0,-100.00,SE,137,9.0,11.0,75,0.00,,,-99.99,,2013-01-23 18:02:00,
2013-01-23 11:11:00,26.0,19.0,-100.00,SE,138,9.0,11.0,74,0.00,,,-99.99,,2013-01-23 18:11:00,
2013-01-23 11:22:00,26.0,19.0,-100.00,SE,141,11.0,13.0,74,0.00,,,-99.99,,2013-01-23 18:22:00,
2013-01-23 11:32:00,26.0,19.0,-100.00,SE,141,11.0,13.0,74,0.00,,,-99.99,,2013-01-23 18:32:00,
2013-01-23 11:42:00,26.0,19.0,-100.00,SE,136,10.0,12.0,73,0.00,,,-99.99,,2013-01-23 18:42:00,
2013-01-23 11:52:00,27.0,20.0,-100.00,SE,127,9.0,12.0,75,0.00,,,-99.99,,2013-01-23 18:52:00,
2013-01-23 12:02:00,27.0,20.0,-100.00,ESE,119,9.0,12.0,76,0.00,,,-99.99,,2013-01-23 19:02:00,
2013-01-23 12:12:00,27.0,21.0,-100.00,ESE,106,11.0,13.0,78,0.00,,,-99.99,,2013-01-23 19:12:00,
2013-01-23 12:22:00,28.0,21.0,-100.00,ESE,106,9.0,12.0,75,0.00,,,-99.99,,2013-01-23 19:22:00,
2013-01-23 12:32:00,29.0,20.0,-100.00,ESE,107,11.0,13.0,70,0.00,,,-99.99,,2013-01-23 19:32:00,
2013-01-23 12:42:00,29.0,21.0,-100.00,ESE,109,11.0,14.0,71,0.00,,,-99.99,,2013-01-23 19:42:00,
2013-01-23 12:52:00,29.0,21.0,-100.00,ESE,110,12.0,14.0,70,0.00,,,-99.99,,2013-01-23 19:52:00,
2013-01-23 13:02:00,29.0,21.0,-100.00,ESE,114,11.0,14.0,72,0.00,,,-99.99,,2013-01-23 20:02:00,
2013-01-23 13:12:00,29.0,21.0,-100.00,ESE,113,11.0,14.0,71,0.00,,,-99.99,,2013-01-23 20:12:00,
2013-01-23 13:22:00,29.0,21.0,-100.00,ESE,120,12.0,14.0,70,0.00,,,-99.99,,2013-01-23 20:22:00,
2013-01-23 13:32:00,29.0,21.0,-100.00,ESE,121,12.0,15.0,71,0.00,,,-99.99,,2013-01-23 20:32:00,
2013-01-23 13:42:00,29.0,19.0,-100.00,ESE,121,12.0,16.0,66,0.00,,,-99.99,,2013-01-23 20:42:00,
2013-01-23 13:53:00,29.0,20.0,-100.00,ESE,116,12.0,16.0,67,0.00,,,-99.99,,2013-01-23 20:53:00,
2013-01-23 14:02:00,29.0,19.0,-100.00,ESE,113,12.0,16.0,66,0.00,,,-99.99,,2013-01-23 21:02:00,
2013-01-23 14:11:00,29.0,19.0,-100.00,ESE,112,11.0,15.0,64,0.00,,,-99.99,,2013-01-23 21:11:00,
2013-01-23 14:22:00,29.0,19.0,-100.00,ESE,120,12.0,16.0,66,0.00,,,-99.99,,2013-01-23 21:22:00,
2013-01-23 14:32:00,29.0,19.0,-100.00,ESE,117,11.0,15.0,66,0.00,,,-99.99,,2013-01-23 21:32:00,
2013-01-23 14:42:00,29.0,20.0,-100.00,ESE,104,12.0,15.0,69,0.00,,,-99.99,,2013-01-23 21:42:00,
2013-01-23 14:52:00,29.0,21.0,-100.00,ESE,117,12.0,15.0,72,0.00,,,-99.99,,2013-01-23 21:52:00,
2013-01-23 15:01:00,29.0,21.0,-100.00,ESE,120,12.0,17.0,73,0.00,,,-99.99,,2013-01-23 22:01:00,
2013-01-23 15:12:00,29.0,20.0,-100.00,ESE,120,13.0,17.0,72,0.00,,,-99.99,,2013-01-23 22:12:00,
2013-01-23 15:22:00,28.0,21.0,-100.00,SE,124,14.0,17.0,75,0.00,,,-99.99,,2013-01-23 22:22:00,
2013-01-23 15:32:00,29.0,20.0,-100.00,ESE,121,14.0,19.0,71,0.00,,,-99.99,,2013-01-23 22:32:00,
2013-01-23 15:42:00,28.0,20.0,-100.00,ESE,119,14.0,19.0,72,0.00,,,-99.99,,2013-01-23 22:42:00,
2013-01-23 15:52:00,28.0,20.0,-100.00,ESE,117,14.0,17.0,72,0.00,,,-99.99,,2013-01-23 22:52:00,
2013-01-23 16:02:00,28.0,21.0,-100.00,ESE,119,12.0,16.0,73,0.00,,,-99.99,,2013-01-23 23:02:00,
2013-01-23 16:12:00,28.0,20.0,-100.00,ESE,121,11.0,14.0,72,0.00,,,-99.99,,2013-01-23 23:12:00,
2013-01-23 16:22:00,28.0,21.0,-100.00,ESE,123,10.0,12.0,75,0.00,,,-99.99,,2013-01-23 23:22:00,
2013-01-23 16:32:00,28.0,21.0,-100.00,ESE,121,9.0,12.0,76,0.00,,,-99.99,,2013-01-23 23:32:00,
2013-01-23 16:42:00,27.0,21.0,-100.00,ESE,120,9.0,12.0,76,0.00,,,-99.99,,2013-01-23 23:42:00,
2013-01-23 16:52:00,27.0,21.0,-100.00,SE,130,9.0,12.0,79,0.00,,,-99.99,,2013-01-23 23:52:00,
2013-01-23 17:02:00,26.0,21.0,-100.00,SE,140,10.0,12.0,82,0.00,,,-99.99,,2013-01-24 00:02:00,
2013-01-23 17:11:00,26.0,21.0,-100.00,SE,140,10.0,12.0,82,0.00,,,-99.99,,2013-01-24 00:11:00,
2013-01-23 17:22:00,26.0,21.0,-100.00,SE,140,12.0,15.0,82,0.00,,,-99.99,,2013-01-24 00:22:00,
2013-01-23 17:32:00,25.0,20.0,-100.00,SE,134,12.0,15.0,82,0.00,,,-99.99,,2013-01-24 00:32:00,
2013-01-23 17:42:00,25.0,20.0,-100.00,SE,137,12.0,15.0,82,0.00,,,-99.99,,2013-01-24 00:42:00,
2013-01-23 17:52:00,25.0,20.0,-100.00,SE,140,13.0,16.0,82,0.00,,,-99.99,,2013-01-24 00:52:00,
2013-01-23 18:02:00,25.0,20.0,-100.00,SE,138,13.0,16.0,82,0.00,,,-99.99,,2013-01-24 01:02:00,
2013-01-23 18:12:00,25.0,20.0,-100.00,SE,137,12.0,16.0,83,0.00,,,-99.99,,2013-01-24 01:12:00,
2013-01-23 18:22:00,25.0,20.0,-100.00,SE,140,12.0,15.0,82,0.00,,,-99.99,,2013-01-24 01:22:00,
2013-01-23 18:32:00,25.0,20.0,-100.00,SE,140,12.0,15.0,82,0.00,,,-99.99,,2013-01-24 01:32:00,
2013-01-23 18:42:00,25.0,20.0,-100.00,SE,140,12.0,16.0,82,0.00,,,-99.99,,2013-01-24 01:42:00,
2013-01-23 18:52:00,25.0,20.0,-100.00,SE,141,12.0,16.0,82,0.00,,,-99.99,,2013-01-24 01:52:00,
2013-01-23 19:02:00,25.0,20.0,-100.00,SE,144,12.0,14.0,82,0.00,,,-99.99,,2013-01-24 02:02:00,
2013-01-23 19:11:00,24.0,20.0,-100.00,SE,144,12.0,15.0,82,0.00,,,-99.99,,2013-01-24 02:11:00,
2013-01-23 19:22:00,24.0,20.0,-100.00,SE,143,11.0,14.0,83,0.00,,,-99.99,,2013-01-24 02:22:00,
2013-01-23 19:32:00,24.0,19.0,-100.00,SE,145,12.0,14.0,83,0.00,,,-99.99,,2013-01-24 02:32:00,
2013-01-23 19:42:00,24.0,19.0,-100.00,SE,145,12.0,14.0,83,0.00,,,-99.99,,2013-01-24 02:42:00,
2013-01-23 19:52:00,24.0,19.0,-100.00,SE,145,12.0,14.0,83,0.00,,,-99.99,,2013-01-24 02:52:00,
2013-01-23 20:02:00,24.0,20.0,-100.00,SE,145,12.0,14.0,84,-99.99,,,-99.99,,2013-01-24 03:02:00,
2013-01-23 20:11:00,24.0,20.0,-100.00,SSE,151,12.0,14.0,84,0.00,,,-99.99,,2013-01-24 03:11:00,
2013-01-23 20:22:00,24.0,20.0,-100.00,SSE,150,14.0,17.0,83,0.00,,,-99.99,,2013-01-24 03:22:00,
2013-01-23 20:32:00,24.0,20.0,-100.00,SSE,150,15.0,17.0,84,0.00,,,-99.99,,2013-01-24 03:32:00,
2013-01-23 20:42:00,24.0,19.0,-100.00,SSE,150,15.0,17.0,84,0.00,,,-99.99,,2013-01-24 03:42:00,
2013-01-23 20:52:00,23.0,19.0,-100.00,SSE,148,15.0,17.0,85,0.00,,,-99.99,,2013-01-24 03:52:00,
2013-01-23 21:02:00,23.0,20.0,-100.00,SSE,150,15.0,17.0,85,0.00,,,-99.99,,2013-01-24 04:02:00,
2013-01-23 21:11:00,23.0,20.0,-100.00,SSE,147,15.0,17.0,85,0.00,,,-99.99,,2013-01-24 04:11:00,
2013-01-23 21:22:00,23.0,20.0,-100.00,SSE,151,14.0,16.0,85,0.00,,,-99.99,,2013-01-24 04:22:00,
2013-01-23 21:32:00,23.0,19.0,-100.00,SSE,150,12.0,15.0,86,0.00,,,-99.99,,2013-01-24 04:32:00,
2013-01-23 21:42:00,22.0,19.0,-100.00,SSE,148,14.0,15.0,88,0.00,,,-99.99,,2013-01-24 04:42:00,
2013-01-23 21:52:00,22.0,19.0,-100.00,SE,144,12.0,15.0,88,0.00,,,-99.99,,2013-01-24 04:52:00,
2013-01-23 22:02:00,22.0,19.0,-100.00,SSE,147,11.0,14.0,88,0.00,,,-99.99,,2013-01-24 05:02:00,
2013-01-23 22:12:00,22.0,19.0,-100.00,SSE,147,12.0,14.0,89,0.00,,,-99.99,,2013-01-24 05:12:00,
2013-01-23 22:22:00,22.0,19.0,-100.00,SSE,150,16.0,17.0,89,0.00,,,-99.99,,2013-01-24 05:22:00,
2013-01-23 22:32:00,22.0,19.0,-100.00,SSE,150,16.0,17.0,89,0.00,,,-99.99,,2013-01-24 05:32:00,
2013-01-23 22:42:00,22.0,19.0,-100.00,SSE,150,16.0,17.0,89,0.00,,,-99.99,,2013-01-24 05:42:00,
2013-01-23 22:52:00,22.0,19.0,-100.00,SE,141,11.0,13.0,89,0.00,,,-99.99,,2013-01-24 05:52:00,
2013-01-23 23:02:00,21.0,19.0,-100.00,SE,138,11.0,13.0,91,0.00,,,-99.99,,2013-01-24 06:02:00,
2013-01-23 23:11:00,21.0,19.0,-100.00,SE,138,9.0,12.0,92,0.00,,,-99.99,,2013-01-24 06:11:00,
2013-01-23 23:22:00,21.0,19.0,-100.00,SE,140,7.0,11.0,91,0.00,,,-99.99,,2013-01-24 06:22:00,
2013-01-23 23:32:00,22.0,19.0,-100.00,SSE,152,9.0,11.0,91,0.00,,,-99.99,,2013-01-24 06:32:00,
2013-01-23 23:42:00,22.0,20.0,-100.00,SSE,152,11.0,14.0,90,0.00,,,-99.99,,2013-01-24 06:42:00,
2013-01-23 23:52:00,22.0,19.0,-100.00,SSE,148,11.0,12.0,90,0.00,,,-99.99,,2013-01-24 06:52:00,